Time;durP1;ratioP1;P1;durP2;ratioP2;P2;SDS_P1;SDS_P2;PMS_P1;PMS_P2;Temp;Humidity;BMP_temperature;BMP_pressure;BME280_temperature;BME280_humidity;BME280_pressure;Samples;Min_cycle;Max_cycle;Signal;HPM_P1;HPM_P2
2021/06/24 00:02:02;;;;;;;3.78;1.85;;;22.60;60.40;;;;;;6271710;28;20052;-75
2021/06/24 00:05:04;;;;;;;2.42;1.75;;;22.60;60.90;;;;;;6319882;28;20356;-74
2021/06/24 00:08:07;;;;;;;4.05;1.88;;;22.60;61.20;;;;;;6302896;28;20078;-75
2021/06/24 00:11:10;;;;;;;4.70;1.95;;;22.50;61.40;;;;;;6302984;28;20048;-74
2021/06/24 00:14:11;;;;;;;3.28;1.80;;;22.50;61.30;;;;;;6319127;28;20412;-74
2021/06/24 00:17:12;;;;;;;3.38;1.95;;;22.50;61.40;;;;;;6319822;28;20028;-75
2021/06/24 00:20:14;;;;;;;4.93;2.03;;;22.60;61.40;;;;;;6319644;28;20365;-75
2021/06/24 00:23:15;;;;;;;8.38;2.40;;;22.60;61.60;;;;;;6319104;28;20043;-75
2021/06/24 00:26:16;;;;;;;2.85;2.00;;;22.60;61.50;;;;;;6319238;28;20032;-76
2021/06/24 00:29:17;;;;;;;8.80;2.00;;;22.60;61.50;;;;;;6319326;28;20377;-75
2021/06/24 00:32:19;;;;;;;2.40;1.83;;;22.70;61.40;;;;;;6297054;28;20037;-75
2021/06/24 00:35:20;;;;;;;2.90;2.00;;;22.80;61.50;;;;;;6277090;28;20040;-75
2021/06/24 00:38:21;;;;;;;6.13;2.20;;;22.70;61.60;;;;;;6292156;28;20354;-75
2021/06/24 00:41:22;;;;;;;4.97;2.40;;;22.70;61.60;;;;;;6293582;28;20093;-75
2021/06/24 00:44:24;;;;;;;4.22;1.70;;;22.60;61.80;;;;;;6269404;28;20037;-75
2021/06/24 00:47:25;;;;;;;8.43;1.90;;;22.60;61.90;;;;;;6277088;28;20094;-74
2021/06/24 00:50:27;;;;;;;1.85;1.55;;;22.60;62.10;;;;;;6277274;28;20036;-75
2021/06/24 00:53:32;;;;;;;2.92;1.90;;;22.60;62.40;;;;;;6269299;28;20041;-75
2021/06/24 00:56:34;;;;;;;2.65;1.60;;;22.50;62.60;;;;;;6267666;28;20043;-74
2021/06/24 00:59:36;;;;;;;3.05;1.80;;;22.50;62.80;;;;;;6269932;28;20362;-75
2021/06/24 01:02:39;;;;;;;2.55;2.15;;;22.40;62.90;;;;;;6295002;28;20374;-74
2021/06/24 01:05:42;;;;;;;3.17;1.67;;;22.40;63.20;;;;;;6295068;28;20029;-75
2021/06/24 01:08:43;;;;;;;2.47;1.80;;;22.40;63.50;;;;;;6295281;28;20462;-74
2021/06/24 01:11:49;;;;;;;3.88;2.30;;;22.30;63.80;;;;;;6294902;28;20465;-75
2021/06/24 01:14:52;;;;;;;3.20;1.77;;;22.30;64.10;;;;;;6278862;28;20024;-75
2021/06/24 01:17:55;;;;;;;4.05;1.92;;;22.20;64.20;;;;;;6295324;28;20027;-75
2021/06/24 01:20:57;;;;;;;6.40;2.05;;;22.20;64.20;;;;;;6285255;28;20025;-75
2021/06/24 01:23:58;;;;;;;3.60;1.70;;;22.30;64.60;;;;;;6253519;28;20478;-75
2021/06/24 01:27:00;;;;;;;3.60;2.15;;;22.20;64.80;;;;;;6269858;28;20041;-75
2021/06/24 01:30:03;;;;;;;4.15;2.67;;;22.20;65.10;;;;;;6270533;28;20032;-75
2021/06/24 01:33:06;;;;;;;3.53;1.90;;;22.20;65.40;;;;;;6287859;28;20026;-75
2021/06/24 01:36:09;;;;;;;4.45;2.00;;;22.20;65.50;;;;;;6271731;28;20075;-75
2021/06/24 01:39:16;;;;;;;7.95;2.08;;;22.20;65.60;;;;;;6276190;28;20052;-75
2021/06/24 01:42:17;;;;;;;6.65;2.20;;;22.20;65.60;;;;;;6292543;28;20028;-75
2021/06/24 01:45:18;;;;;;;9.02;1.80;;;22.10;65.40;;;;;;6260778;28;20503;-75
2021/06/24 01:48:21;;;;;;;3.17;2.28;;;22.10;65.60;;;;;;6252199;28;20030;-75
2021/06/24 01:51:23;;;;;;;5.22;2.20;;;22.20;65.60;;;;;;6277202;28;20045;-75
2021/06/24 01:54:24;;;;;;;3.50;2.20;;;22.20;65.40;;;;;;6259478;28;20381;-75
2021/06/24 01:57:26;;;;;;;7.90;2.53;;;22.20;65.20;;;;;;6275986;28;20045;-76
2021/06/24 02:00:33;;;;;;;5.88;2.15;;;22.30;65.20;;;;;;6274909;28;20055;-75
2021/06/24 02:03:47;;;;;;;3.47;1.80;;;22.30;65.00;;;;;;6292437;28;20113;-75
2021/06/24 02:06:53;;;;;;;2.03;1.75;;;22.30;64.80;;;;;;6300410;28;20055;-75
2021/06/24 02:10:14;;;;;;;9.35;2.00;;;22.30;64.70;;;;;;6301390;28;20043;-75
2021/06/24 02:13:27;;;;;;;2.45;1.92;;;22.30;64.70;;;;;;6316946;28;20599;-75
2021/06/24 02:16:28;;;;;;;6.60;2.17;;;22.30;64.80;;;;;;6299863;28;20119;-75
2021/06/24 02:19:29;;;;;;;8.05;2.10;;;22.30;65.90;;;;;;6316795;28;20550;-75
2021/06/24 02:22:50;;;;;;;3.22;2.00;;;22.20;65.10;;;;;;6312084;28;20045;-75
2021/06/24 02:25:56;;;;;;;2.92;2.00;;;22.20;65.30;;;;;;6299123;28;20070;-75
2021/06/24 02:29:23;;;;;;;4.47;2.00;;;22.20;65.40;;;;;;6307781;28;20033;-75
2021/06/24 02:32:26;;;;;;;2.75;2.13;;;22.10;65.40;;;;;;6298226;28;20462;-75
2021/06/24 02:35:36;;;;;;;3.33;2.17;;;22.10;65.60;;;;;;6313723;28;20377;-75
2021/06/24 02:38:41;;;;;;;3.33;2.00;;;22.10;65.70;;;;;;6298435;28;20420;-75
2021/06/24 02:41:43;;;;;;;2.78;2.10;;;22.10;65.70;;;;;;6298528;28;20074;-75
2021/06/24 02:44:44;;;;;;;3.10;2.55;;;22.10;65.70;;;;;;6297525;28;20040;-75
2021/06/24 02:47:46;;;;;;;2.72;2.30;;;22.10;65.80;;;;;;6297445;28;20046;-75
2021/06/24 02:50:51;;;;;;;3.92;2.47;;;22.20;65.90;;;;;;6297700;28;20075;-75
2021/06/24 02:53:53;;;;;;;3.50;2.65;;;22.10;65.90;;;;;;6298329;28;20040;-75
2021/06/24 02:57:01;;;;;;;3.08;2.35;;;22.20;65.90;;;;;;6297717;28;20153;-74
2021/06/24 03:00:27;;;;;;;5.97;2.70;;;22.20;65.70;;;;;;6230248;28;20069;-74
2021/06/24 03:03:48;;;;;;;6.85;3.10;;;22.20;65.50;;;;;;6231397;28;20116;-76
2021/06/24 03:06:56;;;;;;;8.13;1.98;;;22.20;65.50;;;;;;6245432;28;20057;-75
2021/06/24 03:10:02;;;;;;;2.33;2.13;;;22.30;65.60;;;;;;6229552;28;20124;-75
2021/06/24 03:13:10;;;;;;;2.42;1.92;;;22.20;65.50;;;;;;6230004;28;20033;-75
2021/06/24 03:16:11;;;;;;;4.55;2.08;;;22.20;65.50;;;;;;6261268;28;20030;-74
2021/06/24 03:19:12;;;;;;;2.25;1.95;;;22.20;66.40;;;;;;6245420;28;20152;-74
2021/06/24 03:22:24;;;;;;;2.63;1.92;;;22.20;65.70;;;;;;6228642;28;20123;-75
2021/06/24 03:25:26;;;;;;;2.42;2.05;;;22.10;65.60;;;;;;6245076;28;20582;-75
2021/06/24 03:28:27;;;;;;;3.45;2.03;;;22.00;65.80;;;;;;6212225;28;20110;-75
2021/06/24 03:31:36;;;;;;;4.45;2.78;;;22.00;66.10;;;;;;6225526;28;20209;-75
2021/06/24 03:34:37;;;;;;;2.55;1.90;;;21.90;66.20;;;;;;6221542;28;20030;-75
2021/06/24 03:37:39;;;;;;;3.67;2.00;;;21.80;66.30;;;;;;6252816;28;20036;-75
2021/06/24 03:40:40;;;;;;;2.25;2.00;;;21.80;66.40;;;;;;6297016;28;20089;-75
2021/06/24 03:43:42;;;;;;;2.28;1.90;;;21.80;66.50;;;;;;6295239;28;20082;-75
2021/06/24 03:46:43;;;;;;;3.90;1.80;;;21.80;66.50;;;;;;6293402;28;20064;-75
2021/06/24 03:49:45;;;;;;;3.60;2.22;;;21.80;66.40;;;;;;6321059;28;20040;-74
2021/06/24 03:52:47;;;;;;;6.40;2.58;;;21.70;66.40;;;;;;6301745;28;20047;-74
2021/06/24 03:55:49;;;;;;;2.38;1.92;;;21.70;66.40;;;;;;6284658;28;20033;-75
2021/06/24 03:59:04;;;;;;;4.82;1.88;;;21.70;66.50;;;;;;6288801;28;20047;-74
2021/06/24 04:02:08;;;;;;;6.03;2.60;;;21.70;66.60;;;;;;6301552;28;20475;-74
2021/06/24 04:05:09;;;;;;;4.40;2.50;;;21.70;66.60;;;;;;6288720;28;20033;-75
2021/06/24 04:08:36;;;;;;;9.07;2.50;;;21.70;66.60;;;;;;6292580;28;20037;-76
2021/06/24 04:12:02;;;;;;;2.00;1.73;;;21.80;66.40;;;;;;6274453;28;20040;-75
2021/06/24 04:15:38;;;;;;;3.80;2.55;;;21.80;66.30;;;;;;6242426;28;20091;-74
2021/06/24 04:18:39;;;;;;;4.32;2.30;;;21.80;66.20;;;;;;6242608;28;20029;-75
2021/06/24 04:21:41;;;;;;;4.60;2.17;;;21.90;66.40;;;;;;6201047;28;20033;-75
2021/06/24 04:24:45;;;;;;;3.25;2.38;;;21.90;66.20;;;;;;6225738;28;20144;-75
2021/06/24 04:27:47;;;;;;;3.42;1.92;;;21.90;66.00;;;;;;6231302;28;20534;-75
2021/06/24 04:30:49;;;;;;;6.32;2.35;;;21.90;66.10;;;;;;6216781;28;20044;-75
2021/06/24 04:33:51;;;;;;;4.68;2.22;;;21.90;66.10;;;;;;6226521;28;20041;-75
2021/06/24 04:37:02;;;;;;;3.85;2.28;;;21.90;66.10;;;;;;6251138;28;20114;-75
2021/06/24 04:40:10;;;;;;;3.65;2.25;;;21.90;66.10;;;;;;6268014;28;20424;-75
2021/06/24 04:43:22;;;;;;;5.20;2.70;;;21.90;66.20;;;;;;6262155;28;20034;-75
2021/06/24 04:46:24;;;;;;;9.27;2.78;;;21.90;65.80;;;;;;6197615;28;20038;-75
2021/06/24 04:49:25;;;;;;;5.43;2.30;;;21.90;65.70;;;;;;6239510;28;20048;-74
2021/06/24 04:52:30;;;;;;;3.95;2.13;;;21.90;65.80;;;;;;6271178;28;20029;-76
2021/06/24 04:55:39;;;;;;;5.07;2.75;;;21.90;65.70;;;;;;6270047;28;20033;-74
2021/06/24 04:58:46;;;;;;;24.93;11.17;;;22.00;65.70;;;;;;6269258;28;20065;-75
2021/06/24 05:02:06;;;;;;;4.90;3.00;;;22.00;65.60;;;;;;6288748;28;20036;-76
2021/06/24 05:05:36;;;;;;;5.20;2.95;;;22.00;65.50;;;;;;6239487;28;20037;-76
2021/06/24 05:08:38;;;;;;;15.27;2.85;;;22.00;65.30;;;;;;6225019;28;20359;-76
2021/06/24 05:11:39;;;;;;;4.63;2.60;;;22.10;65.30;;;;;;6226858;28;20026;-75
2021/06/24 05:14:41;;;;;;;4.43;3.10;;;22.00;65.20;;;;;;6228763;28;20472;-76
2021/06/24 05:17:42;;;;;;;4.35;2.60;;;22.10;65.40;;;;;;6230162;28;20099;-75
2021/06/24 05:20:45;;;;;;;6.65;2.55;;;22.10;65.30;;;;;;6229828;28;20037;-75
2021/06/24 05:23:48;;;;;;;4.00;2.80;;;22.10;65.30;;;;;;6246422;28;20335;-75
2021/06/24 05:26:49;;;;;;;10.25;3.22;;;22.10;65.20;;;;;;6230211;28;21129;-75
2021/06/24 05:29:51;;;;;;;8.45;2.15;;;22.20;65.20;;;;;;6203836;28;20207;-75
2021/06/24 05:32:53;;;;;;;2.90;2.45;;;22.20;65.00;;;;;;6215770;28;20037;-76
2021/06/24 05:35:54;;;;;;;8.65;2.80;;;22.20;64.90;;;;;;6213304;28;20033;-75
2021/06/24 05:38:55;;;;;;;8.60;3.10;;;22.40;64.90;;;;;;6220507;28;20034;-75
2021/06/24 05:41:57;;;;;;;7.50;2.80;;;22.40;64.50;;;;;;6229162;28;20482;-75
2021/06/24 05:44:58;;;;;;;5.93;2.92;;;22.60;64.20;;;;;;6247568;28;20048;-75
2021/06/24 05:48:00;;;;;;;4.90;2.22;;;22.60;63.90;;;;;;6248746;28;20040;-76
2021/06/24 05:51:01;;;;;;;3.13;2.40;;;22.80;63.70;;;;;;6248755;28;20417;-74
2021/06/24 05:54:02;;;;;;;8.88;2.83;;;22.80;63.30;;;;;;6246353;28;20029;-75
2021/06/24 05:57:04;;;;;;;5.40;2.55;;;22.90;63.00;;;;;;6220351;28;20401;-74
2021/06/24 06:00:07;;;;;;;9.73;2.70;;;23.00;62.90;;;;;;6226098;28;20057;-75
2021/06/24 06:03:14;;;;;;;5.35;2.47;;;23.10;62.60;;;;;;6199363;28;20032;-76
2021/06/24 06:06:15;;;;;;;8.98;2.80;;;23.30;62.20;;;;;;6268886;28;20137;-75
2021/06/24 06:09:16;;;;;;;5.70;2.92;;;23.30;61.60;;;;;;6247800;28;20038;-74
2021/06/24 06:12:18;;;;;;;5.57;3.92;;;23.40;61.20;;;;;;6247061;28;20033;-75
2021/06/24 06:15:19;;;;;;;7.47;2.90;;;23.40;60.90;;;;;;6249186;28;20130;-74
2021/06/24 06:18:25;;;;;;;4.65;2.67;;;23.40;60.70;;;;;;6245192;28;20040;-75
2021/06/24 06:21:30;;;;;;;4.18;2.92;;;23.40;60.50;;;;;;6245134;28;20124;-76
2021/06/24 06:24:31;;;;;;;3.50;2.45;;;23.50;60.30;;;;;;6276852;28;20041;-75
2021/06/24 06:27:33;;;;;;;2.90;2.55;;;23.50;60.10;;;;;;6272388;28;20098;-75
2021/06/24 06:30:34;;;;;;;6.35;3.00;;;23.50;59.90;;;;;;6288020;28;20041;-75
2021/06/24 06:33:36;;;;;;;4.28;2.80;;;23.50;59.70;;;;;;6291167;28;20037;-76
2021/06/24 06:36:37;;;;;;;7.93;3.10;;;23.60;59.60;;;;;;6295931;28;20047;-75
2021/06/24 06:39:38;;;;;;;5.35;2.60;;;23.70;59.40;;;;;;6297074;28;20047;-75
2021/06/24 06:42:40;;;;;;;5.38;2.65;;;23.80;59.20;;;;;;6314336;28;20064;-76
2021/06/24 06:45:43;;;;;;;3.80;2.47;;;23.90;59.00;;;;;;6297538;28;20094;-75
2021/06/24 06:48:45;;;;;;;9.75;2.95;;;24.10;58.70;;;;;;6294144;28;20029;-75
2021/06/24 06:51:47;;;;;;;6.05;2.53;;;24.30;58.40;;;;;;6309630;28;20055;-74
2021/06/24 06:54:48;;;;;;;6.55;2.33;;;24.40;58.10;;;;;;6297722;28;20033;-75
2021/06/24 06:57:49;;;;;;;14.90;4.32;;;24.60;57.70;;;;;;6279111;28;20039;-76
2021/06/24 07:00:50;;;;;;;10.77;3.17;;;24.70;57.40;;;;;;6296295;28;20035;-74
2021/06/24 07:03:52;;;;;;;9.80;2.38;;;25.00;56.90;;;;;;6299944;28;20036;-74
2021/06/24 07:06:53;;;;;;;5.70;3.45;;;25.10;56.20;;;;;;6296214;28;20036;-76
2021/06/24 07:09:54;;;;;;;4.15;2.40;;;25.20;55.90;;;;;;6295542;28;20524;-76
2021/06/24 07:12:56;;;;;;;20.02;3.33;;;25.20;55.80;;;;;;6296949;28;20024;-76
2021/06/24 07:15:57;;;;;;;5.18;2.55;;;25.20;55.50;;;;;;6295335;28;20024;-75
2021/06/24 07:18:58;;;;;;;6.00;2.25;;;25.20;55.40;;;;;;6293703;28;20024;-75
2021/06/24 07:21:59;;;;;;;5.45;2.03;;;25.20;55.20;;;;;;6296970;28;20029;-75
2021/06/24 07:25:00;;;;;;;4.80;2.50;;;25.10;55.20;;;;;;6311790;28;20058;-75
2021/06/24 07:28:02;;;;;;;12.85;2.70;;;24.90;55.30;;;;;;6294765;28;20029;-75
2021/06/24 07:31:03;;;;;;;7.72;2.35;;;24.70;55.50;;;;;;6272616;28;20116;-75
2021/06/24 07:34:04;;;;;;;2.53;2.05;;;24.60;55.70;;;;;;6295453;28;20113;-75
2021/06/24 07:37:05;;;;;;;2.83;1.70;;;24.50;55.70;;;;;;6270131;28;20036;-75
2021/06/24 07:40:07;;;;;;;8.20;2.45;;;24.40;55.90;;;;;;6253796;28;20110;-75
2021/06/24 07:43:09;;;;;;;4.05;2.42;;;24.30;56.20;;;;;;6269418;28;20122;-74
2021/06/24 07:46:11;;;;;;;2.20;1.90;;;24.20;56.40;;;;;;6271045;28;20119;-74
2021/06/24 07:49:13;;;;;;;2.22;1.70;;;24.00;56.40;;;;;;6270697;28;20037;-76
2021/06/24 07:52:14;;;;;;;10.98;2.72;;;23.90;56.40;;;;;;6237478;28;20093;-76
2021/06/24 07:55:15;;;;;;;3.60;2.03;;;23.80;56.50;;;;;;6250849;28;20029;-76
2021/06/24 07:58:17;;;;;;;14.13;3.53;;;23.80;56.50;;;;;;6252950;28;20048;-76
2021/06/24 08:01:18;;;;;;;4.68;2.33;;;23.80;56.40;;;;;;6268488;28;20048;-75
2021/06/24 08:04:19;;;;;;;2.65;2.30;;;23.90;56.40;;;;;;6270711;28;20037;-75
2021/06/24 08:07:20;;;;;;;5.70;2.80;;;24.10;56.20;;;;;;6288078;28;20512;-75
2021/06/24 08:10:22;;;;;;;2.17;1.98;;;24.30;55.80;;;;;;6295456;28;20036;-75
2021/06/24 08:13:25;;;;;;;9.95;1.88;;;24.70;55.30;;;;;;6291189;28;20103;-75
2021/06/24 08:16:30;;;;;;;12.55;2.22;;;24.90;54.70;;;;;;6309120;28;20044;-74
2021/06/24 08:19:32;;;;;;;6.18;2.28;;;25.10;54.10;;;;;;6305362;28;20481;-75
2021/06/24 08:22:33;;;;;;;11.60;3.15;;;25.30;53.80;;;;;;6318376;28;20037;-76
2021/06/24 08:25:35;;;;;;;8.02;2.13;;;25.50;53.30;;;;;;6317246;28;20048;-75
2021/06/24 08:28:36;;;;;;;6.65;3.20;;;25.70;53.20;;;;;;6296840;28;20051;-75
2021/06/24 08:31:37;;;;;;;4.55;2.08;;;25.90;52.70;;;;;;6296410;28;20136;-75
2021/06/24 08:34:39;;;;;;;3.10;1.90;;;26.10;52.00;;;;;;6273033;28;20043;-75
2021/06/24 08:37:41;;;;;;;2.78;2.03;;;26.30;51.50;;;;;;6289912;28;20347;-74
2021/06/24 08:40:42;;;;;;;4.75;2.28;;;26.70;50.80;;;;;;6312141;28;20481;-76
2021/06/24 08:43:43;;;;;;;1.98;1.67;;;27.10;49.80;;;;;;6295298;28;20041;-75
2021/06/24 08:46:46;;;;;;;3.30;1.70;;;27.30;49.20;;;;;;6295299;28;20044;-74
2021/06/24 08:49:52;;;;;;;2.85;1.95;;;27.50;48.90;;;;;;6295430;28;20369;-76
2021/06/24 08:52:55;;;;;;;1.50;1.30;;;27.70;48.30;;;;;;6294889;28;20418;-75
2021/06/24 08:55:57;;;;;;;1.52;1.42;;;27.80;47.80;;;;;;6295648;28;20112;-75
2021/06/24 08:58:58;;;;;;;3.72;1.40;;;27.90;47.30;;;;;;6267059;28;20032;-75
2021/06/24 09:02:00;;;;;;;2.22;1.10;;;27.90;47.00;;;;;;6273825;28;20465;-76
2021/06/24 09:05:01;;;;;;;2.90;1.35;;;27.80;47.20;;;;;;6311689;28;20055;-75
2021/06/24 09:08:03;;;;;;;4.90;1.33;;;27.70;47.10;;;;;;6294761;28;20458;-75
2021/06/24 09:11:17;;;;;;;3.78;1.00;;;27.80;47.20;;;;;;6295950;28;20029;-75
2021/06/24 09:14:19;;;;;;;9.27;1.55;;;27.70;46.80;;;;;;6268666;28;20032;-75
2021/06/24 09:17:41;;;;;;;2.95;1.27;;;27.60;46.80;;;;;;6311349;28;20036;-76
2021/06/24 09:20:42;;;;;;;4.78;1.33;;;27.40;47.10;;;;;;6250573;28;20041;-74
2021/06/24 09:23:43;;;;;;;1.77;1.20;;;27.30;47.50;;;;;;6288075;28;20032;-76
2021/06/24 09:26:44;;;;;;;8.07;4.03;;;27.20;47.70;;;;;;6293037;28;20052;-75
2021/06/24 09:30:03;;;;;;;2.97;1.90;;;27.20;47.90;;;;;;6309850;28;20063;-75
2021/06/24 09:33:17;;;;;;;34.97;31.92;;;27.30;48.00;;;;;;6292749;28;20051;-75
2021/06/24 09:36:31;;;;;;;0.90;0.85;;;27.40;47.90;;;;;;6308921;28;20040;-75
2021/06/24 09:39:37;;;;;;;2.90;1.20;;;27.50;47.90;;;;;;6283720;28;20430;-76
2021/06/24 09:42:38;;;;;;;4.28;1.77;;;27.50;47.70;;;;;;6292848;28;20043;-75
2021/06/24 09:45:39;;;;;;;1.83;1.20;;;27.30;47.70;;;;;;6292873;28;20139;-76
2021/06/24 09:48:40;;;;;;;4.53;1.30;;;26.90;48.30;;;;;;6292249;28;20083;-75
2021/06/24 09:51:51;;;;;;;4.15;1.33;;;26.50;49.10;;;;;;6309638;28;20041;-74
2021/06/24 09:55:14;;;;;;;8.05;1.60;;;26.20;49.80;;;;;;6289669;28;20044;-74
2021/06/24 09:58:17;;;;;;;7.88;5.47;;;26.00;50.00;;;;;;6295955;28;20033;-76
2021/06/24 10:01:37;;;;;;;1.75;1.17;;;25.80;50.00;;;;;;6316490;28;20043;-76
2021/06/24 10:04:40;;;;;;;2.03;1.25;;;25.70;50.20;;;;;;6314964;28;20097;-76
2021/06/24 10:07:43;;;;;;;3.70;1.02;;;25.50;50.70;;;;;;6271618;28;20036;-75
2021/06/24 10:10:45;;;;;;;2.50;1.40;;;25.30;51.40;;;;;;6275822;28;20044;-77
2021/06/24 10:13:46;;;;;;;200.45;183.93;;;25.00;52.10;;;;;;6300437;28;20029;-77
2021/06/24 10:16:53;;;;;;;559.72;512.83;;;24.70;53.10;;;;;;6283388;28;20036;-76
2021/06/24 10:19:54;;;;;;;2.70;1.17;;;24.50;53.50;;;;;;6299202;28;20690;-76
2021/06/24 10:23:01;;;;;;;1.20;1.00;;;24.20;53.90;;;;;;6303874;28;20036;-75
2021/06/24 10:26:04;;;;;;;3.05;0.90;;;23.90;54.50;;;;;;6315730;28;20100;-76
2021/06/24 10:29:23;;;;;;;3.40;1.10;;;23.70;55.00;;;;;;6301832;28;20043;-75
2021/06/24 10:32:30;;;;;;;608.28;554.08;;;23.40;55.80;;;;;;6293475;28;20035;-75
2021/06/24 10:35:35;;;;;;;1.35;1.13;;;23.30;56.80;;;;;;6272372;28;20040;-76
2021/06/24 10:38:43;;;;;;;1.45;0.80;;;23.10;57.20;;;;;;6337842;28;20032;-75
2021/06/24 10:42:04;;;;;;;422.02;381.23;;;22.90;57.60;;;;;;6311482;28;20084;-75
2021/06/24 10:45:06;;;;;;;1.20;0.82;;;22.70;58.00;;;;;;6304017;28;20089;-75
2021/06/24 10:48:26;;;;;;;1.00;0.80;;;22.60;58.20;;;;;;6302179;28;20103;-74
2021/06/24 10:51:36;;;;;;;3.13;0.70;;;22.40;58.60;;;;;;6304426;28;20028;-76
2021/06/24 10:54:44;;;;;;;2.13;1.10;;;22.30;59.00;;;;;;6319437;28;20037;-76
2021/06/24 10:57:45;;;;;;;2.72;1.35;;;22.20;59.30;;;;;;6314365;28;20036;-75
2021/06/24 11:00:50;;;;;;;1.30;0.80;;;22.10;59.50;;;;;;6294573;28;20450;-75
2021/06/24 11:03:54;;;;;;;0.77;0.77;;;22.00;60.00;;;;;;6291829;28;20043;-75
2021/06/24 11:06:57;;;;;;;1.73;1.13;;;21.90;60.00;;;;;;6294997;28;20048;-74
2021/06/24 11:10:23;;;;;;;4.90;1.40;;;21.70;60.20;;;;;;6295192;28;20086;-75
2021/06/24 11:13:40;;;;;;;2.22;0.85;;;21.50;61.00;;;;;;6294804;28;20044;-74
2021/06/24 11:16:43;;;;;;;5.75;1.17;;;21.40;61.60;;;;;;6270502;28;20491;-75
2021/06/24 11:20:13;;;;;;;2.25;0.80;;;21.30;62.10;;;;;;6285502;28;20033;-75
2021/06/24 11:23:34;;;;;;;1.35;1.00;;;21.20;62.00;;;;;;6295267;28;20422;-75
2021/06/24 11:26:38;;;;;;;1.98;1.42;;;21.10;60.80;;;;;;6295009;28;20041;-75
2021/06/24 11:29:45;;;;;;;1.90;0.93;;;21.10;60.80;;;;;;6294577;28;20029;-75
2021/06/24 11:32:51;;;;;;;2.08;0.98;;;21.00;61.10;;;;;;6313172;28;20032;-74
2021/06/24 11:36:08;;;;;;;5.80;1.20;;;20.90;61.80;;;;;;6293502;28;20044;-74
2021/06/24 11:39:09;;;;;;;4.63;0.93;;;20.90;62.90;;;;;;6271960;28;20029;-75
2021/06/24 11:42:15;;;;;;;2.67;1.10;;;20.90;63.70;;;;;;6270389;28;20095;-75
2021/06/24 11:45:18;;;;;;;2.22;1.20;;;20.90;64.20;;;;;;6276674;28;20067;-75
2021/06/24 11:48:19;;;;;;;2.75;1.25;;;20.80;64.00;;;;;;6295952;28;20033;-75
2021/06/24 12:04:30;;;;;;;2.55;1.48;;;21.00;64.50;;;;;;6294898;28;20048;-74
2021/06/24 12:07:35;;;;;;;7.72;2.00;;;21.10;64.50;;;;;;6295795;28;20047;-75
2021/06/24 12:10:37;;;;;;;14.20;1.63;;;21.20;64.70;;;;;;6296296;28;20036;-75
2021/06/24 12:13:40;;;;;;;5.40;1.50;;;21.20;65.10;;;;;;6278783;28;20381;-75
2021/06/24 12:16:41;;;;;;;3.05;1.40;;;21.20;65.80;;;;;;6312981;28;20043;-75
2021/06/24 12:20:03;;;;;;;2.35;1.15;;;21.20;66.30;;;;;;6297603;28;20033;-76
2021/06/24 12:23:06;;;;;;;3.85;1.73;;;21.20;66.80;;;;;;6293683;28;20093;-75
2021/06/24 12:26:08;;;;;;;4.75;2.25;;;21.20;66.80;;;;;;6296088;28;20032;-75
2021/06/24 12:29:09;;;;;;;5.72;2.22;;;21.40;66.60;;;;;;6295409;28;20388;-75
2021/06/24 12:32:10;;;;;;;4.78;2.50;;;21.50;66.00;;;;;;6278683;28;20159;-75
2021/06/24 12:35:12;;;;;;;4.03;1.48;;;21.70;65.00;;;;;;6320565;28;20020;-75
2021/06/24 12:38:16;;;;;;;7.07;2.92;;;21.90;64.40;;;;;;6313181;28;20039;-73
2021/06/24 12:41:17;;;;;;;5.65;1.73;;;22.20;63.80;;;;;;6310906;28;20033;-75
2021/06/24 12:44:19;;;;;;;13.90;2.63;;;22.40;62.40;;;;;;6285337;28;20036;-75
2021/06/24 12:47:42;;;;;;;2.80;1.13;;;22.50;61.90;;;;;;6299187;28;20066;-76
2021/06/24 12:50:44;;;;;;;4.97;1.45;;;22.90;60.20;;;;;;6277549;28;20043;-77
2021/06/24 12:53:48;;;;;;;1.13;0.98;;;23.10;59.20;;;;;;6294196;28;20437;-76
2021/06/24 12:56:50;;;;;;;7.43;1.90;;;23.40;58.50;;;;;;6276395;28;20134;-76
2021/06/24 12:59:51;;;;;;;12.48;1.80;;;23.60;57.70;;;;;;6293357;28;20048;-75
2021/06/24 13:02:52;;;;;;;6.45;1.10;;;23.90;57.10;;;;;;6274864;28;20093;-75
2021/06/24 13:06:06;;;;;;;1.50;0.98;;;24.10;56.20;;;;;;6293533;28;20036;-75
2021/06/24 13:09:08;;;;;;;1.33;1.13;;;24.50;55.70;;;;;;6252101;28;20404;-75
2021/06/24 13:12:11;;;;;;;1.67;0.82;;;24.60;54.80;;;;;;6268652;28;20138;-75
2021/06/24 13:15:33;;;;;;;2.20;1.23;;;24.80;54.60;;;;;;6268328;28;20099;-76
2021/06/24 13:18:57;;;;;;;6.22;0.88;;;25.10;54.10;;;;;;6263866;28;20040;-75
2021/06/24 13:22:01;;;;;;;2.67;1.55;;;25.20;53.20;;;;;;6268784;28;20033;-75
2021/06/24 13:25:04;;;;;;;1.45;0.93;;;25.30;53.00;;;;;;6269680;28;20041;-76
2021/06/24 13:28:06;;;;;;;1.88;1.00;;;25.40;52.80;;;;;;6269953;28;20531;-75
2021/06/24 13:31:09;;;;;;;4.38;1.15;;;25.60;52.70;;;;;;6252947;28;20029;-75
2021/06/24 13:34:17;;;;;;;4.15;1.45;;;25.80;51.80;;;;;;6267931;28;20072;-75
2021/06/24 13:37:19;;;;;;;;;;;26.00;51.50;;;;;;6262515;28;20025;-74
2021/06/24 13:40:31;;;;;;;4.38;0.93;;;26.30;50.80;;;;;;6298704;28;19985;-74
2021/06/24 13:43:32;;;;;;;5.47;1.00;;;26.30;50.10;;;;;;6267156;28;20539;-75
2021/06/24 13:46:34;;;;;;;1.13;0.93;;;26.30;50.00;;;;;;6298981;28;20421;-76
2021/06/24 13:49:35;;;;;;;6.85;1.23;;;26.20;50.10;;;;;;6298647;28;20349;-75
2021/06/24 13:52:37;;;;;;;2.33;1.20;;;26.20;50.30;;;;;;6298646;28;20054;-75
2021/06/24 13:55:38;;;;;;;1.75;1.27;;;26.10;50.40;;;;;;6298532;28;20036;-75
2021/06/24 13:58:40;;;;;;;1.52;0.93;;;26.10;50.30;;;;;;6296700;28;20481;-74
2021/06/24 14:01:43;;;;;;;1.20;1.10;;;26.00;50.30;;;;;;6298516;28;20029;-74
2021/06/24 14:04:45;;;;;;;4.22;0.90;;;26.00;50.00;;;;;;6272902;28;20489;-74
2021/06/24 14:07:46;;;;;;;2.33;1.20;;;26.20;49.80;;;;;;6290648;28;20041;-75
2021/06/24 14:10:47;;;;;;;2.03;0.98;;;27.20;48.50;;;;;;6299039;28;20101;-76
2021/06/24 14:13:48;;;;;;;0.70;0.60;;;28.00;47.00;;;;;;6315440;28;20048;-75
2021/06/24 14:16:50;;;;;;;2.40;0.68;;;28.40;45.40;;;;;;6315294;28;20106;-75
2021/06/24 14:19:51;;;;;;;8.38;0.73;;;28.30;43.80;;;;;;6297285;28;20033;-75
2021/06/24 14:22:53;;;;;;;0.30;0.30;;;28.40;43.20;;;;;;6297444;28;20033;-78
2021/06/24 14:25:54;;;;;;;0.47;0.45;;;29.20;42.00;;;;;;6298279;28;20507;-76
2021/06/24 14:28:56;;;;;;;1.52;0.80;;;30.50;39.40;;;;;;6297973;28;20039;-75
2021/06/24 14:31:57;;;;;;;0.70;0.60;;;31.40;37.80;;;;;;6298249;28;20048;-76
2021/06/24 14:34:59;;;;;;;0.40;0.40;;;31.90;37.00;;;;;;6301700;28;20054;-75
2021/06/24 14:38:00;;;;;;;3.30;0.63;;;32.20;36.20;;;;;;6321909;28;20043;-76
2021/06/24 14:41:01;;;;;;;0.47;0.47;;;32.60;35.20;;;;;;6323606;28;20024;-75
2021/06/24 14:44:03;;;;;;;0.77;0.60;;;32.20;35.60;;;;;;6322639;28;20063;-77
2021/06/24 14:47:04;;;;;;;5.15;0.43;;;31.50;36.50;;;;;;6323502;28;20341;-74
2021/06/24 14:50:06;;;;;;;3.33;0.80;;;30.80;37.50;;;;;;6321318;28;20035;-74
2021/06/24 14:53:07;;;;;;;4.22;1.20;;;30.30;38.60;;;;;;6296435;28;20472;-76
2021/06/24 14:56:18;;;;;;;5.13;0.90;;;29.90;40.00;;;;;;6259356;28;20029;-75
2021/06/24 14:59:19;;;;;;;2.22;1.10;;;30.00;40.30;;;;;;6297177;28;20085;-74
2021/06/24 15:02:20;;;;;;;1.55;0.80;;;30.90;39.20;;;;;;6296860;28;20499;-75
2021/06/24 15:05:21;;;;;;;1.05;0.70;;;31.70;37.40;;;;;;6313867;28;20477;-74
2021/06/24 15:08:23;;;;;;;1.30;0.90;;;31.70;36.60;;;;;;6296945;28;20040;-75
2021/06/24 15:11:24;;;;;;;1.95;0.55;;;31.20;36.90;;;;;;6313336;28;20143;-76
2021/06/24 15:14:25;;;;;;;1.67;0.70;;;30.60;37.00;;;;;;6298236;28;20028;-76
2021/06/24 15:17:26;;;;;;;2.05;0.70;;;30.10;37.50;;;;;;6308261;28;20040;-76
2021/06/24 15:20:28;;;;;;;8.75;1.90;;;29.60;38.20;;;;;;6296330;28;20044;-75
2021/06/24 15:23:30;;;;;;;1.98;0.70;;;29.10;39.20;;;;;;6278615;28;20474;-75
2021/06/24 15:26:31;;;;;;;1.42;0.88;;;28.70;40.30;;;;;;6295825;28;20040;-75
2021/06/24 15:29:32;;;;;;;0.70;0.63;;;28.40;41.10;;;;;;6296181;28;20496;-75
2021/06/24 15:32:37;;;;;;;2.17;0.90;;;28.20;41.70;;;;;;6297378;28;20476;-75
2021/06/24 15:35:39;;;;;;;1.27;0.75;;;28.00;42.30;;;;;;6296769;28;20037;-75
2021/06/24 15:38:40;;;;;;;4.40;0.90;;;27.60;43.10;;;;;;6312763;28;20523;-75
2021/06/24 15:41:41;;;;;;;2.08;0.75;;;27.30;43.70;;;;;;6296403;28;20033;-75
2021/06/24 15:44:43;;;;;;;0.80;0.68;;;27.20;44.20;;;;;;6296402;28;20032;-75
2021/06/24 15:47:47;;;;;;;4.63;0.88;;;27.20;44.60;;;;;;6295114;28;20029;-76
2021/06/24 15:50:48;;;;;;;3.95;0.90;;;27.20;44.70;;;;;;6297734;28;20131;-76
2021/06/24 15:53:50;;;;;;;1.30;0.73;;;27.20;44.80;;;;;;6312247;28;20055;-76
2021/06/24 15:56:51;;;;;;;2.42;0.85;;;27.50;44.60;;;;;;6296029;28;20365;-75
2021/06/24 15:59:52;;;;;;;0.68;0.68;;;28.10;43.90;;;;;;6295710;28;20033;-74
2021/06/24 16:02:53;;;;;;;2.30;0.80;;;29.00;42.50;;;;;;6286993;28;20040;-74
2021/06/24 16:05:54;;;;;;;0.65;0.55;;;30.00;40.80;;;;;;6255100;28;20040;-75
2021/06/24 16:08:56;;;;;;;0.40;0.40;;;31.00;38.70;;;;;;6295129;28;20132;-75
2021/06/24 16:12:01;;;;;;;2.00;1.15;;;32.10;36.60;;;;;;6312704;28;20028;-76